sensor_id;sensor_type;location;lat;lon;timestamp;temperature;humidity
29345;DHT22;16339;48.748;2.222;2023-07-08T00:02:27;27.80;70.10
29345;DHT22;16339;48.748;2.222;2023-07-08T00:04:56;27.80;69.90
29345;DHT22;16339;48.748;2.222;2023-07-08T00:07:25;27.80;69.60
29345;DHT22;16339;48.748;2.222;2023-07-08T00:09:53;27.80;69.80
29345;DHT22;16339;48.748;2.222;2023-07-08T00:12:24;27.80;70.10
29345;DHT22;16339;48.748;2.222;2023-07-08T00:14:52;27.70;70.20
29345;DHT22;16339;48.748;2.222;2023-07-08T00:20:37;27.70;69.80
29345;DHT22;16339;48.748;2.222;2023-07-08T00:23:08;27.70;70.00
29345;DHT22;16339;48.748;2.222;2023-07-08T00:25:38;27.60;70.00
29345;DHT22;16339;48.748;2.222;2023-07-08T00:28:09;27.60;69.40
29345;DHT22;16339;48.748;2.222;2023-07-08T00:30:38;27.60;69.50
29345;DHT22;16339;48.748;2.222;2023-07-08T00:33:07;27.60;69.50
29345;DHT22;16339;48.748;2.222;2023-07-08T00:35:39;27.60;69.70
29345;DHT22;16339;48.748;2.222;2023-07-08T00:38:13;27.60;69.70
29345;DHT22;16339;48.748;2.222;2023-07-08T00:40:50;27.60;69.90
29345;DHT22;16339;48.748;2.222;2023-07-08T00:43:22;27.60;70.00
29345;DHT22;16339;48.748;2.222;2023-07-08T00:45:53;27.50;70.10
29345;DHT22;16339;48.748;2.222;2023-07-08T00:48:33;27.60;70.30
29345;DHT22;16339;48.748;2.222;2023-07-08T00:51:08;27.50;70.30
29345;DHT22;16339;48.748;2.222;2023-07-08T00:53:38;27.50;70.40
29345;DHT22;16339;48.748;2.222;2023-07-08T00:56:09;27.50;70.70
29345;DHT22;16339;48.748;2.222;2023-07-08T00:58:45;27.50;70.40
29345;DHT22;16339;48.748;2.222;2023-07-08T01:01:14;27.50;70.50
29345;DHT22;16339;48.748;2.222;2023-07-08T01:03:47;27.40;71.20
29345;DHT22;16339;48.748;2.222;2023-07-08T01:06:22;27.40;71.60
29345;DHT22;16339;48.748;2.222;2023-07-08T01:08:58;27.40;71.90
29345;DHT22;16339;48.748;2.222;2023-07-08T01:11:31;27.30;71.80
29345;DHT22;16339;48.748;2.222;2023-07-08T01:14:01;27.30;71.90
29345;DHT22;16339;48.748;2.222;2023-07-08T01:16:31;27.30;72.10
29345;DHT22;16339;48.748;2.222;2023-07-08T01:19:00;27.30;72.10
29345;DHT22;16339;48.748;2.222;2023-07-08T01:21:34;27.30;71.90
29345;DHT22;16339;48.748;2.222;2023-07-08T01:24:08;27.30;71.80
29345;DHT22;16339;48.748;2.222;2023-07-08T01:26:40;27.30;71.80
29345;DHT22;16339;48.748;2.222;2023-07-08T01:29:10;27.30;71.50
29345;DHT22;16339;48.748;2.222;2023-07-08T01:31:39;27.30;71.60
29345;DHT22;16339;48.748;2.222;2023-07-08T01:34:14;27.30;71.80
29345;DHT22;16339;48.748;2.222;2023-07-08T01:36:47;27.40;72.00
29345;DHT22;16339;48.748;2.222;2023-07-08T01:39:21;27.20;68.30
29345;DHT22;16339;48.748;2.222;2023-07-08T01:41:50;26.90;67.60
29345;DHT22;16339;48.748;2.222;2023-07-08T01:44:26;27.10;67.40
29345;DHT22;16339;48.748;2.222;2023-07-08T01:46:58;27.30;67.50
29345;DHT22;16339;48.748;2.222;2023-07-08T01:49:29;27.40;67.00
29345;DHT22;16339;48.748;2.222;2023-07-08T01:51:58;27.50;66.90
29345;DHT22;16339;48.748;2.222;2023-07-08T01:54:30;27.60;67.00
29345;DHT22;16339;48.748;2.222;2023-07-08T01:56:59;27.70;67.20
29345;DHT22;16339;48.748;2.222;2023-07-08T01:59:28;27.70;67.20
29345;DHT22;16339;48.748;2.222;2023-07-08T02:01:57;27.70;66.90
29345;DHT22;16339;48.748;2.222;2023-07-08T02:04:26;27.60;67.10
29345;DHT22;16339;48.748;2.222;2023-07-08T02:06:57;27.40;68.00
29345;DHT22;16339;48.748;2.222;2023-07-08T02:09:29;27.40;68.90
29345;DHT22;16339;48.748;2.222;2023-07-08T02:11:58;27.10;69.50
29345;DHT22;16339;48.748;2.222;2023-07-08T02:14:26;26.90;70.00
29345;DHT22;16339;48.748;2.222;2023-07-08T02:16:55;26.90;70.40
29345;DHT22;16339;48.748;2.222;2023-07-08T02:19:24;26.70;70.60
29345;DHT22;16339;48.748;2.222;2023-07-08T02:21:53;26.70;70.70
29345;DHT22;16339;48.748;2.222;2023-07-08T02:24:22;26.60;70.60
29345;DHT22;16339;48.748;2.222;2023-07-08T02:26:53;26.70;70.50
29345;DHT22;16339;48.748;2.222;2023-07-08T02:29:23;26.60;70.50
29345;DHT22;16339;48.748;2.222;2023-07-08T02:31:51;26.60;70.80
29345;DHT22;16339;48.748;2.222;2023-07-08T02:34:20;26.50;70.30
29345;DHT22;16339;48.748;2.222;2023-07-08T02:36:49;26.60;70.00
29345;DHT22;16339;48.748;2.222;2023-07-08T02:39:17;26.80;69.70
29345;DHT22;16339;48.748;2.222;2023-07-08T02:41:46;26.90;69.20
29345;DHT22;16339;48.748;2.222;2023-07-08T02:44:17;26.90;69.40
29345;DHT22;16339;48.748;2.222;2023-07-08T02:46:46;26.90;68.20
29345;DHT22;16339;48.748;2.222;2023-07-08T02:49:15;27.00;68.40
29345;DHT22;16339;48.748;2.222;2023-07-08T02:51:43;27.10;68.00
29345;DHT22;16339;48.748;2.222;2023-07-08T02:54:12;27.20;67.50
29345;DHT22;16339;48.748;2.222;2023-07-08T02:56:41;27.20;66.60
29345;DHT22;16339;48.748;2.222;2023-07-08T02:59:09;27.20;66.40
29345;DHT22;16339;48.748;2.222;2023-07-08T03:01:41;27.30;66.40
29345;DHT22;16339;48.748;2.222;2023-07-08T03:04:12;27.30;66.40
29345;DHT22;16339;48.748;2.222;2023-07-08T03:06:42;27.30;66.20
29345;DHT22;16339;48.748;2.222;2023-07-08T03:09:12;27.30;65.70
29345;DHT22;16339;48.748;2.222;2023-07-08T03:11:41;27.30;65.90
29345;DHT22;16339;48.748;2.222;2023-07-08T03:14:10;27.30;66.90
29345;DHT22;16339;48.748;2.222;2023-07-08T03:16:41;27.30;67.00
29345;DHT22;16339;48.748;2.222;2023-07-08T03:19:11;27.30;66.40
29345;DHT22;16339;48.748;2.222;2023-07-08T03:21:43;27.40;66.90
29345;DHT22;16339;48.748;2.222;2023-07-08T03:24:12;27.40;67.00
29345;DHT22;16339;48.748;2.222;2023-07-08T03:26:44;27.40;67.30
29345;DHT22;16339;48.748;2.222;2023-07-08T03:29:15;27.40;67.60
29345;DHT22;16339;48.748;2.222;2023-07-08T03:31:48;27.40;67.50
29345;DHT22;16339;48.748;2.222;2023-07-08T03:34:17;27.40;67.60
29345;DHT22;16339;48.748;2.222;2023-07-08T03:36:48;27.30;68.00
29345;DHT22;16339;48.748;2.222;2023-07-08T03:39:17;27.30;68.20
29345;DHT22;16339;48.748;2.222;2023-07-08T03:41:48;27.30;67.90
29345;DHT22;16339;48.748;2.222;2023-07-08T03:44:17;27.20;67.90
29345;DHT22;16339;48.748;2.222;2023-07-08T03:46:49;27.20;68.30
29345;DHT22;16339;48.748;2.222;2023-07-08T03:49:19;27.10;68.60
29345;DHT22;16339;48.748;2.222;2023-07-08T03:51:50;27.10;69.20
29345;DHT22;16339;48.748;2.222;2023-07-08T03:54:21;27.00;69.40
29345;DHT22;16339;48.748;2.222;2023-07-08T03:56:50;27.00;69.50
29345;DHT22;16339;48.748;2.222;2023-07-08T03:59:19;26.90;69.80
29345;DHT22;16339;48.748;2.222;2023-07-08T04:01:50;26.80;70.10
29345;DHT22;16339;48.748;2.222;2023-07-08T04:04:19;26.80;70.30
29345;DHT22;16339;48.748;2.222;2023-07-08T04:06:47;26.60;69.70
29345;DHT22;16339;48.748;2.222;2023-07-08T04:09:17;26.60;70.20
29345;DHT22;16339;48.748;2.222;2023-07-08T04:11:46;26.50;71.00
29345;DHT22;16339;48.748;2.222;2023-07-08T04:14:14;26.50;71.10
29345;DHT22;16339;48.748;2.222;2023-07-08T04:16:53;26.50;70.80
29345;DHT22;16339;48.748;2.222;2023-07-08T04:19:24;26.50;71.30
29345;DHT22;16339;48.748;2.222;2023-07-08T04:21:52;26.50;71.20
29345;DHT22;16339;48.748;2.222;2023-07-08T04:24:21;26.50;71.00
29345;DHT22;16339;48.748;2.222;2023-07-08T04:26:50;26.40;71.40
29345;DHT22;16339;48.748;2.222;2023-07-08T04:29:20;26.50;71.60
29345;DHT22;16339;48.748;2.222;2023-07-08T04:31:49;26.50;71.50
29345;DHT22;16339;48.748;2.222;2023-07-08T04:34:20;26.50;71.30
29345;DHT22;16339;48.748;2.222;2023-07-08T04:36:49;26.40;71.40
29345;DHT22;16339;48.748;2.222;2023-07-08T04:39:18;26.40;71.60
29345;DHT22;16339;48.748;2.222;2023-07-08T04:41:48;26.40;71.40
29345;DHT22;16339;48.748;2.222;2023-07-08T04:44:17;26.40;71.80
29345;DHT22;16339;48.748;2.222;2023-07-08T04:46:49;26.30;71.60
29345;DHT22;16339;48.748;2.222;2023-07-08T04:49:21;26.30;71.80
29345;DHT22;16339;48.748;2.222;2023-07-08T04:51:50;26.30;72.50
29345;DHT22;16339;48.748;2.222;2023-07-08T04:54:19;26.20;72.70
29345;DHT22;16339;48.748;2.222;2023-07-08T04:56:48;26.20;72.60
29345;DHT22;16339;48.748;2.222;2023-07-08T04:59:20;26.10;72.90
29345;DHT22;16339;48.748;2.222;2023-07-08T05:01:49;26.20;73.40
29345;DHT22;16339;48.748;2.222;2023-07-08T05:04:22;26.10;73.40
29345;DHT22;16339;48.748;2.222;2023-07-08T05:06:50;26.10;73.30
29345;DHT22;16339;48.748;2.222;2023-07-08T05:09:19;26.10;73.60
29345;DHT22;16339;48.748;2.222;2023-07-08T05:11:49;26.00;73.80
29345;DHT22;16339;48.748;2.222;2023-07-08T05:14:17;26.00;73.90
29345;DHT22;16339;48.748;2.222;2023-07-08T05:16:48;25.90;73.90
29345;DHT22;16339;48.748;2.222;2023-07-08T05:19:17;25.90;74.30
29345;DHT22;16339;48.748;2.222;2023-07-08T05:21:50;25.90;74.60
29345;DHT22;16339;48.748;2.222;2023-07-08T05:24:19;25.90;74.80
29345;DHT22;16339;48.748;2.222;2023-07-08T05:26:48;26.00;75.00
29345;DHT22;16339;48.748;2.222;2023-07-08T05:29:17;26.10;75.20
29345;DHT22;16339;48.748;2.222;2023-07-08T05:31:46;26.20;75.00
29345;DHT22;16339;48.748;2.222;2023-07-08T05:34:15;26.30;74.70
29345;DHT22;16339;48.748;2.222;2023-07-08T05:36:44;26.40;74.70
29345;DHT22;16339;48.748;2.222;2023-07-08T05:39:15;26.50;74.40
29345;DHT22;16339;48.748;2.222;2023-07-08T05:41:44;26.60;74.20
29345;DHT22;16339;48.748;2.222;2023-07-08T05:44:12;26.70;73.60
29345;DHT22;16339;48.748;2.222;2023-07-08T05:46:42;26.70;73.30
29345;DHT22;16339;48.748;2.222;2023-07-08T05:49:11;26.80;72.90
29345;DHT22;16339;48.748;2.222;2023-07-08T05:51:40;26.90;72.90
29345;DHT22;16339;48.748;2.222;2023-07-08T05:54:09;27.00;72.50
29345;DHT22;16339;48.748;2.222;2023-07-08T05:56:40;27.10;72.20
29345;DHT22;16339;48.748;2.222;2023-07-08T05:59:09;27.10;71.90
29345;DHT22;16339;48.748;2.222;2023-07-08T06:01:38;27.20;72.80
29345;DHT22;16339;48.748;2.222;2023-07-08T06:04:06;27.20;71.90
29345;DHT22;16339;48.748;2.222;2023-07-08T06:06:38;27.30;72.10
29345;DHT22;16339;48.748;2.222;2023-07-08T06:09:07;27.30;72.10
29345;DHT22;16339;48.748;2.222;2023-07-08T06:11:36;27.30;71.70
29345;DHT22;16339;48.748;2.222;2023-07-08T06:14:07;27.40;71.60
29345;DHT22;16339;48.748;2.222;2023-07-08T06:16:36;27.40;71.70
29345;DHT22;16339;48.748;2.222;2023-07-08T06:19:04;27.40;72.10
29345;DHT22;16339;48.748;2.222;2023-07-08T06:21:33;27.40;71.20
29345;DHT22;16339;48.748;2.222;2023-07-08T06:24:02;27.10;70.60
29345;DHT22;16339;48.748;2.222;2023-07-08T06:26:31;27.10;71.10
29345;DHT22;16339;48.748;2.222;2023-07-08T06:29:00;27.00;71.20
29345;DHT22;16339;48.748;2.222;2023-07-08T06:31:31;26.90;71.40
29345;DHT22;16339;48.748;2.222;2023-07-08T06:34:00;27.00;71.30
29345;DHT22;16339;48.748;2.222;2023-07-08T06:36:29;27.10;71.20
29345;DHT22;16339;48.748;2.222;2023-07-08T06:38:58;27.10;70.70
29345;DHT22;16339;48.748;2.222;2023-07-08T06:41:27;27.10;71.50
29345;DHT22;16339;48.748;2.222;2023-07-08T06:43:55;27.20;70.50
29345;DHT22;16339;48.748;2.222;2023-07-08T06:46:24;27.30;70.30
29345;DHT22;16339;48.748;2.222;2023-07-08T06:48:56;27.40;70.10
29345;DHT22;16339;48.748;2.222;2023-07-08T06:51:24;27.30;69.60
29345;DHT22;16339;48.748;2.222;2023-07-08T06:53:53;27.40;69.40
29345;DHT22;16339;48.748;2.222;2023-07-08T06:56:22;27.40;69.20
29345;DHT22;16339;48.748;2.222;2023-07-08T06:58:51;27.50;69.10
29345;DHT22;16339;48.748;2.222;2023-07-08T07:01:19;27.60;69.40
29345;DHT22;16339;48.748;2.222;2023-07-08T07:03:49;27.60;68.90
29345;DHT22;16339;48.748;2.222;2023-07-08T07:06:20;27.70;68.70
29345;DHT22;16339;48.748;2.222;2023-07-08T07:08:49;27.70;68.20
29345;DHT22;16339;48.748;2.222;2023-07-08T07:11:18;27.80;68.10
29345;DHT22;16339;48.748;2.222;2023-07-08T07:13:47;27.80;68.30
29345;DHT22;16339;48.748;2.222;2023-07-08T07:16:15;27.80;68.20
29345;DHT22;16339;48.748;2.222;2023-07-08T07:18:44;27.80;68.30
29345;DHT22;16339;48.748;2.222;2023-07-08T07:21:13;27.90;68.30
29345;DHT22;16339;48.748;2.222;2023-07-08T07:23:44;28.00;68.30
29345;DHT22;16339;48.748;2.222;2023-07-08T07:26:13;28.00;68.30
29345;DHT22;16339;48.748;2.222;2023-07-08T07:28:42;28.00;68.30
29345;DHT22;16339;48.748;2.222;2023-07-08T07:31:11;28.10;68.30
29345;DHT22;16339;48.748;2.222;2023-07-08T07:33:40;28.10;68.30
29345;DHT22;16339;48.748;2.222;2023-07-08T07:36:08;28.20;68.40
29345;DHT22;16339;48.748;2.222;2023-07-08T07:38:38;28.20;68.50
29345;DHT22;16339;48.748;2.222;2023-07-08T07:41:10;28.30;68.20
29345;DHT22;16339;48.748;2.222;2023-07-08T07:43:38;28.30;68.20
29345;DHT22;16339;48.748;2.222;2023-07-08T07:46:07;28.30;69.30
29345;DHT22;16339;48.748;2.222;2023-07-08T07:48:36;28.30;68.50
29345;DHT22;16339;48.748;2.222;2023-07-08T07:51:05;28.30;68.20
29345;DHT22;16339;48.748;2.222;2023-07-08T07:53:36;28.30;68.30
29345;DHT22;16339;48.748;2.222;2023-07-08T07:56:04;28.40;68.50
29345;DHT22;16339;48.748;2.222;2023-07-08T07:58:36;28.40;68.40
29345;DHT22;16339;48.748;2.222;2023-07-08T08:01:04;28.40;68.40
29345;DHT22;16339;48.748;2.222;2023-07-08T08:03:33;28.50;68.00
29345;DHT22;16339;48.748;2.222;2023-07-08T08:06:02;28.50;67.80
29345;DHT22;16339;48.748;2.222;2023-07-08T08:08:30;28.50;67.70
29345;DHT22;16339;48.748;2.222;2023-07-08T08:10:59;28.60;67.80
29345;DHT22;16339;48.748;2.222;2023-07-08T08:13:28;28.60;67.70
29345;DHT22;16339;48.748;2.222;2023-07-08T08:15:59;28.60;67.50
29345;DHT22;16339;48.748;2.222;2023-07-08T08:18:28;28.40;67.60
29345;DHT22;16339;48.748;2.222;2023-07-08T08:20:57;28.50;67.70
29345;DHT22;16339;48.748;2.222;2023-07-08T08:23:26;28.40;68.00
29345;DHT22;16339;48.748;2.222;2023-07-08T08:25:55;28.50;68.20
29345;DHT22;16339;48.748;2.222;2023-07-08T08:28:25;28.60;68.50
29345;DHT22;16339;48.748;2.222;2023-07-08T08:30:54;28.70;69.10
29345;DHT22;16339;48.748;2.222;2023-07-08T08:33:25;28.50;67.50
29345;DHT22;16339;48.748;2.222;2023-07-08T08:35:54;28.60;67.70
29345;DHT22;16339;48.748;2.222;2023-07-08T08:38:24;28.30;68.20
29345;DHT22;16339;48.748;2.222;2023-07-08T08:40:53;28.40;68.60
29345;DHT22;16339;48.748;2.222;2023-07-08T08:43:25;28.40;68.60
29345;DHT22;16339;48.748;2.222;2023-07-08T08:46:02;28.50;69.10
29345;DHT22;16339;48.748;2.222;2023-07-08T08:48:41;28.40;68.70
29345;DHT22;16339;48.748;2.222;2023-07-08T08:51:13;28.30;69.40
29345;DHT22;16339;48.748;2.222;2023-07-08T08:53:43;28.40;69.30
29345;DHT22;16339;48.748;2.222;2023-07-08T08:56:19;28.40;69.40
29345;DHT22;16339;48.748;2.222;2023-07-08T08:58:56;28.50;69.40
29345;DHT22;16339;48.748;2.222;2023-07-08T09:01:27;28.50;69.00
29345;DHT22;16339;48.748;2.222;2023-07-08T09:04:03;28.60;69.00
29345;DHT22;16339;48.748;2.222;2023-07-08T09:06:35;28.50;69.10
29345;DHT22;16339;48.748;2.222;2023-07-08T09:09:09;28.40;69.50
29345;DHT22;16339;48.748;2.222;2023-07-08T09:11:51;28.50;69.30
29345;DHT22;16339;48.748;2.222;2023-07-08T09:14:24;28.30;69.20
29345;DHT22;16339;48.748;2.222;2023-07-08T09:17:00;28.60;69.00
29345;DHT22;16339;48.748;2.222;2023-07-08T09:19:40;28.60;68.30
29345;DHT22;16339;48.748;2.222;2023-07-08T09:22:14;28.70;68.00
29345;DHT22;16339;48.748;2.222;2023-07-08T09:24:49;28.90;67.20
29345;DHT22;16339;48.748;2.222;2023-07-08T09:27:19;28.90;67.30
29345;DHT22;16339;48.748;2.222;2023-07-08T09:29:48;29.00;67.30
29345;DHT22;16339;48.748;2.222;2023-07-08T09:32:20;29.10;66.10
29345;DHT22;16339;48.748;2.222;2023-07-08T09:34:53;29.20;66.60
29345;DHT22;16339;48.748;2.222;2023-07-08T09:37:25;29.20;66.10
29345;DHT22;16339;48.748;2.222;2023-07-08T09:39:56;29.20;66.20
29345;DHT22;16339;48.748;2.222;2023-07-08T09:42:27;29.30;66.00
29345;DHT22;16339;48.748;2.222;2023-07-08T09:44:58;29.30;66.70
29345;DHT22;16339;48.748;2.222;2023-07-08T09:47:30;29.40;66.80
29345;DHT22;16339;48.748;2.222;2023-07-08T09:50:12;29.40;67.20
29345;DHT22;16339;48.748;2.222;2023-07-08T09:52:45;29.40;66.30
29345;DHT22;16339;48.748;2.222;2023-07-08T09:55:14;29.40;66.20
29345;DHT22;16339;48.748;2.222;2023-07-08T09:57:44;29.40;65.90
29345;DHT22;16339;48.748;2.222;2023-07-08T10:00:15;29.40;66.50
29345;DHT22;16339;48.748;2.222;2023-07-08T10:02:46;29.40;66.50
29345;DHT22;16339;48.748;2.222;2023-07-08T10:05:23;29.50;66.80
29345;DHT22;16339;48.748;2.222;2023-07-08T10:07:56;29.40;66.30
29345;DHT22;16339;48.748;2.222;2023-07-08T10:10:29;29.50;66.20
29345;DHT22;16339;48.748;2.222;2023-07-08T10:13:01;29.50;65.80
29345;DHT22;16339;48.748;2.222;2023-07-08T10:15:34;29.50;66.10
29345;DHT22;16339;48.748;2.222;2023-07-08T10:18:04;29.50;66.40
29345;DHT22;16339;48.748;2.222;2023-07-08T10:20:48;29.50;66.60
29345;DHT22;16339;48.748;2.222;2023-07-08T10:23:30;29.60;65.70
29345;DHT22;16339;48.748;2.222;2023-07-08T10:26:06;29.40;66.20
29345;DHT22;16339;48.748;2.222;2023-07-08T10:28:42;29.50;66.40
29345;DHT22;16339;48.748;2.222;2023-07-08T10:31:20;29.60;66.70
29345;DHT22;16339;48.748;2.222;2023-07-08T10:34:14;29.70;66.50
29345;DHT22;16339;48.748;2.222;2023-07-08T10:36:53;29.80;65.90
29345;DHT22;16339;48.748;2.222;2023-07-08T10:42:32;29.80;65.10
29345;DHT22;16339;48.748;2.222;2023-07-08T10:45:10;29.90;65.40
29345;DHT22;16339;48.748;2.222;2023-07-08T10:47:51;29.90;64.40
29345;DHT22;16339;48.748;2.222;2023-07-08T10:50:35;30.00;64.60
29345;DHT22;16339;48.748;2.222;2023-07-08T10:53:28;30.00;64.60
29345;DHT22;16339;48.748;2.222;2023-07-08T10:56:05;30.10;64.70
29345;DHT22;16339;48.748;2.222;2023-07-08T11:01:47;30.30;64.00
29345;DHT22;16339;48.748;2.222;2023-07-08T11:04:34;30.30;63.90
29345;DHT22;16339;48.748;2.222;2023-07-08T11:07:12;30.40;63.80
29345;DHT22;16339;48.748;2.222;2023-07-08T11:09:49;30.50;63.80
29345;DHT22;16339;48.748;2.222;2023-07-08T11:12:25;30.60;63.80
29345;DHT22;16339;48.748;2.222;2023-07-08T11:14:59;30.70;63.80
29345;DHT22;16339;48.748;2.222;2023-07-08T11:17:36;30.70;62.70
29345;DHT22;16339;48.748;2.222;2023-07-08T11:20:15;30.80;62.10
29345;DHT22;16339;48.748;2.222;2023-07-08T11:22:49;30.80;61.50
29345;DHT22;16339;48.748;2.222;2023-07-08T11:25:24;30.80;62.00
29345;DHT22;16339;48.748;2.222;2023-07-08T11:27:56;30.90;62.20
29345;DHT22;16339;48.748;2.222;2023-07-08T11:30:29;30.90;61.70
29345;DHT22;16339;48.748;2.222;2023-07-08T11:33:04;30.80;61.90
29345;DHT22;16339;48.748;2.222;2023-07-08T11:35:39;30.80;63.00
29345;DHT22;16339;48.748;2.222;2023-07-08T11:38:13;30.90;62.90
29345;DHT22;16339;48.748;2.222;2023-07-08T11:40:56;31.00;61.70
29345;DHT22;16339;48.748;2.222;2023-07-08T11:43:27;31.00;61.20
29345;DHT22;16339;48.748;2.222;2023-07-08T11:45:57;31.00;61.10
29345;DHT22;16339;48.748;2.222;2023-07-08T11:48:29;31.10;61.90
29345;DHT22;16339;48.748;2.222;2023-07-08T11:51:04;31.20;62.10
29345;DHT22;16339;48.748;2.222;2023-07-08T11:53:38;31.30;61.80
29345;DHT22;16339;48.748;2.222;2023-07-08T11:56:23;31.40;62.00
29345;DHT22;16339;48.748;2.222;2023-07-08T11:59:05;31.40;61.30
29345;DHT22;16339;48.748;2.222;2023-07-08T12:01:40;31.50;60.50
29345;DHT22;16339;48.748;2.222;2023-07-08T12:04:25;31.60;61.20
29345;DHT22;16339;48.748;2.222;2023-07-08T12:07:03;31.60;60.80
29345;DHT22;16339;48.748;2.222;2023-07-08T12:09:38;31.60;59.30
29345;DHT22;16339;48.748;2.222;2023-07-08T12:12:30;31.70;59.60
29345;DHT22;16339;48.748;2.222;2023-07-08T12:15:05;31.70;59.20
29345;DHT22;16339;48.748;2.222;2023-07-08T12:17:38;31.70;59.40
29345;DHT22;16339;48.748;2.222;2023-07-08T12:20:18;31.80;58.90
29345;DHT22;16339;48.748;2.222;2023-07-08T12:22:47;31.80;58.30
29345;DHT22;16339;48.748;2.222;2023-07-08T12:25:18;31.90;57.90
29345;DHT22;16339;48.748;2.222;2023-07-08T12:27:49;31.80;57.50
29345;DHT22;16339;48.748;2.222;2023-07-08T12:30:18;32.00;57.40
29345;DHT22;16339;48.748;2.222;2023-07-08T12:32:47;32.10;57.90
29345;DHT22;16339;48.748;2.222;2023-07-08T12:35:22;32.10;58.30
29345;DHT22;16339;48.748;2.222;2023-07-08T12:37:52;32.20;58.00
29345;DHT22;16339;48.748;2.222;2023-07-08T12:40:22;32.30;58.00
29345;DHT22;16339;48.748;2.222;2023-07-08T12:42:54;32.30;57.90
29345;DHT22;16339;48.748;2.222;2023-07-08T12:45:26;32.40;58.00
29345;DHT22;16339;48.748;2.222;2023-07-08T12:47:55;32.50;58.60
29345;DHT22;16339;48.748;2.222;2023-07-08T12:50:26;32.50;57.20
29345;DHT22;16339;48.748;2.222;2023-07-08T12:52:55;32.40;56.40
29345;DHT22;16339;48.748;2.222;2023-07-08T12:55:28;32.30;57.00
29345;DHT22;16339;48.748;2.222;2023-07-08T12:58:01;32.30;57.30
29345;DHT22;16339;48.748;2.222;2023-07-08T13:00:31;32.40;57.30
29345;DHT22;16339;48.748;2.222;2023-07-08T13:03:05;32.50;57.20
29345;DHT22;16339;48.748;2.222;2023-07-08T13:05:35;32.50;56.20
29345;DHT22;16339;48.748;2.222;2023-07-08T13:08:04;32.40;56.30
29345;DHT22;16339;48.748;2.222;2023-07-08T13:10:35;32.40;56.00
29345;DHT22;16339;48.748;2.222;2023-07-08T13:13:09;32.50;56.20
29345;DHT22;16339;48.748;2.222;2023-07-08T13:15:41;32.80;56.60
29345;DHT22;16339;48.748;2.222;2023-07-08T13:18:14;33.00;55.40
29345;DHT22;16339;48.748;2.222;2023-07-08T13:20:46;33.20;54.90
29345;DHT22;16339;48.748;2.222;2023-07-08T13:23:17;33.30;54.40
29345;DHT22;16339;48.748;2.222;2023-07-08T13:25:48;33.20;54.20
29345;DHT22;16339;48.748;2.222;2023-07-08T13:28:25;33.30;54.00
29345;DHT22;16339;48.748;2.222;2023-07-08T13:30:55;33.40;54.30
29345;DHT22;16339;48.748;2.222;2023-07-08T13:33:29;33.50;54.50
29345;DHT22;16339;48.748;2.222;2023-07-08T13:35:58;33.60;53.70
29345;DHT22;16339;48.748;2.222;2023-07-08T13:38:32;33.80;53.20
29345;DHT22;16339;48.748;2.222;2023-07-08T13:41:03;33.90;53.80
29345;DHT22;16339;48.748;2.222;2023-07-08T13:43:35;33.90;54.00
29345;DHT22;16339;48.748;2.222;2023-07-08T13:46:30;33.90;53.70
29345;DHT22;16339;48.748;2.222;2023-07-08T13:49:01;34.00;53.10
29345;DHT22;16339;48.748;2.222;2023-07-08T13:51:31;33.90;52.50
29345;DHT22;16339;48.748;2.222;2023-07-08T13:54:09;34.00;52.60
29345;DHT22;16339;48.748;2.222;2023-07-08T13:56:41;34.10;52.70
29345;DHT22;16339;48.748;2.222;2023-07-08T13:59:14;34.20;52.60
29345;DHT22;16339;48.748;2.222;2023-07-08T14:01:46;34.30;52.50
29345;DHT22;16339;48.748;2.222;2023-07-08T14:04:19;34.40;51.90
29345;DHT22;16339;48.748;2.222;2023-07-08T14:06:49;34.50;51.50
29345;DHT22;16339;48.748;2.222;2023-07-08T14:09:19;34.60;51.00
29345;DHT22;16339;48.748;2.222;2023-07-08T14:11:49;34.60;50.30
29345;DHT22;16339;48.748;2.222;2023-07-08T14:14:18;34.60;50.90
29345;DHT22;16339;48.748;2.222;2023-07-08T14:16:52;34.50;51.20
29345;DHT22;16339;48.748;2.222;2023-07-08T14:19:25;34.50;51.60
29345;DHT22;16339;48.748;2.222;2023-07-08T14:21:56;34.50;51.60
29345;DHT22;16339;48.748;2.222;2023-07-08T14:24:25;34.40;50.90
29345;DHT22;16339;48.748;2.222;2023-07-08T14:26:54;34.40;50.60
29345;DHT22;16339;48.748;2.222;2023-07-08T14:29:23;34.30;50.90
29345;DHT22;16339;48.748;2.222;2023-07-08T14:31:54;34.40;50.80
29345;DHT22;16339;48.748;2.222;2023-07-08T14:34:25;34.60;50.90
29345;DHT22;16339;48.748;2.222;2023-07-08T14:36:54;34.80;50.80
29345;DHT22;16339;48.748;2.222;2023-07-08T14:39:23;35.00;50.30
29345;DHT22;16339;48.748;2.222;2023-07-08T14:41:51;35.10;49.30
29345;DHT22;16339;48.748;2.222;2023-07-08T14:44:21;35.20;48.70
29345;DHT22;16339;48.748;2.222;2023-07-08T14:46:51;35.20;48.80
29345;DHT22;16339;48.748;2.222;2023-07-08T14:49:23;35.30;48.90
29345;DHT22;16339;48.748;2.222;2023-07-08T14:51:52;35.30;49.20
29345;DHT22;16339;48.748;2.222;2023-07-08T14:54:22;35.50;49.00
29345;DHT22;16339;48.748;2.222;2023-07-08T14:56:52;35.50;49.00
29345;DHT22;16339;48.748;2.222;2023-07-08T14:59:24;35.60;48.80
29345;DHT22;16339;48.748;2.222;2023-07-08T15:01:55;35.60;48.60
29345;DHT22;16339;48.748;2.222;2023-07-08T15:04:26;35.70;49.50
29345;DHT22;16339;48.748;2.222;2023-07-08T15:06:58;35.90;49.00
29345;DHT22;16339;48.748;2.222;2023-07-08T15:09:27;35.90;48.80
29345;DHT22;16339;48.748;2.222;2023-07-08T15:11:56;36.00;48.80
29345;DHT22;16339;48.748;2.222;2023-07-08T15:14:26;36.00;48.40
29345;DHT22;16339;48.748;2.222;2023-07-08T15:16:55;36.00;48.40
29345;DHT22;16339;48.748;2.222;2023-07-08T15:19:27;35.90;48.10
29345;DHT22;16339;48.748;2.222;2023-07-08T15:21:58;35.70;47.40
29345;DHT22;16339;48.748;2.222;2023-07-08T15:24:27;35.40;47.80
29345;DHT22;16339;48.748;2.222;2023-07-08T15:26:56;35.10;48.00
29345;DHT22;16339;48.748;2.222;2023-07-08T15:29:25;34.80;48.20
29345;DHT22;16339;48.748;2.222;2023-07-08T15:31:53;34.70;49.00
29345;DHT22;16339;48.748;2.222;2023-07-08T15:34:27;34.60;49.00
29345;DHT22;16339;48.748;2.222;2023-07-08T15:36:56;34.60;49.10
29345;DHT22;16339;48.748;2.222;2023-07-08T15:39:24;34.70;49.20
29345;DHT22;16339;48.748;2.222;2023-07-08T15:41:53;35.00;49.50
29345;DHT22;16339;48.748;2.222;2023-07-08T15:44:22;35.70;47.50
29345;DHT22;16339;48.748;2.222;2023-07-08T15:46:51;36.80;47.00
29345;DHT22;16339;48.748;2.222;2023-07-08T15:49:21;37.80;45.80
29345;DHT22;16339;48.748;2.222;2023-07-08T15:51:55;38.70;44.90
29345;DHT22;16339;48.748;2.222;2023-07-08T15:54:24;39.50;43.80
29345;DHT22;16339;48.748;2.222;2023-07-08T15:56:53;40.00;42.50
29345;DHT22;16339;48.748;2.222;2023-07-08T15:59:26;40.10;42.80
29345;DHT22;16339;48.748;2.222;2023-07-08T16:02:03;39.80;42.90
29345;DHT22;16339;48.748;2.222;2023-07-08T16:04:33;39.10;43.00
29345;DHT22;16339;48.748;2.222;2023-07-08T16:07:07;38.50;43.70